createdAt,value
2022-08-17T09:32:16.515Z,58.69
2022-08-17T09:33:16.489Z,58.29
2022-08-17T09:34:16.485Z,56.19
2022-08-17T09:35:16.471Z,55.07
2022-08-17T09:36:16.485Z,55.74
2022-08-17T09:37:16.435Z,55.83
2022-08-17T09:38:16.431Z,57.45
2022-08-17T09:39:16.436Z,57.97
2022-08-17T09:40:16.449Z,56.84
2022-08-17T09:41:16.396Z,57.35
2022-08-17T09:42:16.378Z,58.15
2022-08-17T09:43:16.366Z,58.05
2022-08-17T09:44:22.910Z,56.67
2022-08-17T09:45:17.326Z,57.23
2022-08-17T09:46:16.359Z,55.94
2022-08-17T09:47:16.307Z,56.24
2022-08-17T09:48:18.108Z,58.32
2022-08-17T09:49:16.283Z,58.12
2022-08-17T09:50:16.337Z,56.93
2022-08-17T09:51:16.282Z,57.56
2022-08-17T09:52:16.246Z,58.22
2022-08-17T09:53:16.226Z,59.41
2022-08-17T09:54:37.973Z,58.69
2022-08-17T09:55:17.206Z,56.51
2022-08-17T09:56:16.208Z,56.71
2022-08-17T09:57:29.796Z,55.33
2022-08-17T09:58:17.177Z,55.43
2022-08-17T09:59:16.160Z,55.33
2022-08-17T10:00:16.558Z,55.55
2022-08-17T10:01:16.189Z,55.94
2022-08-17T10:02:16.138Z,56.67
2022-08-17T10:03:16.119Z,56.84
2022-08-17T10:04:18.778Z,56.93
2022-08-17T10:05:16.107Z,57.53
2022-08-17T10:06:21.771Z,60.00
2022-08-17T10:07:17.049Z,59.31
2022-08-17T10:08:16.041Z,58.94
2022-08-17T10:09:16.028Z,58.54
2022-08-17T10:10:16.026Z,59.56
2022-08-17T10:11:16.039Z,59.00
2022-08-17T10:12:17.362Z,59.59
2022-08-17T10:13:15.979Z,59.79
2022-08-17T10:14:37.412Z,60.02
2022-08-17T10:15:17.469Z,61.30
2022-08-17T10:16:15.950Z,59.92
2022-08-17T10:17:15.920Z,61.80
2022-08-17T10:18:15.911Z,59.22
2022-08-17T10:19:15.900Z,58.83
2022-08-17T10:20:15.918Z,59.62
2022-08-17T10:21:15.909Z,61.21
2022-08-17T10:22:35.150Z,61.10
2022-08-17T10:23:16.842Z,60.31
2022-08-17T10:24:15.840Z,61.40
2022-08-17T10:25:21.857Z,63.06
2022-08-17T10:26:16.824Z,61.37
2022-08-17T10:27:15.815Z,62.26
2022-08-17T10:28:19.941Z,62.63
2022-08-17T10:29:15.769Z,63.32
2022-08-17T10:30:15.762Z,63.12
2022-08-17T10:31:34.249Z,62.04
2022-08-17T10:32:16.731Z,62.30
2022-08-17T10:33:15.726Z,62.40
2022-08-17T10:34:15.702Z,61.51
2022-08-17T10:35:15.689Z,61.80
2022-08-17T10:36:15.714Z,64.05
2022-08-17T10:37:15.682Z,62.37
2022-08-17T10:38:15.672Z,63.16
2022-08-17T10:39:15.642Z,62.17
2022-08-17T10:40:15.792Z,61.48
2022-08-17T10:41:15.611Z,61.78
2022-08-17T10:42:15.668Z,61.88
2022-08-17T10:43:16.582Z,62.27
